Time;durP1;ratioP1;P1;durP2;ratioP2;P2;SDS_P1;SDS_P2;PMS_P1;PMS_P2;Temp;Humidity;BMP_temperature;BMP_pressure;BME280_temperature;BME280_humidity;BME280_pressure;Samples;Min_cycle;Max_cycle;Signal;HPM_P1;HPM_P2
2022/08/18 00:02:10;;;;;;;32.90;22.10;;;;;;;20.06;64.36;98619.56;105995;1277;97815;-69
2022/08/18 00:04:39;;;;;;;33.40;23.10;;;;;;;20.06;64.54;98620.27;106016;1277;111757;-68
2022/08/18 00:07:21;;;;;;;32.80;22.90;;;;;;;20.05;64.61;98621.84;105965;1277;98021;-70
2022/08/18 00:09:50;;;;;;;30.80;22.20;;;;;;;20.04;64.70;98623.02;105833;1277;107841;-69
2022/08/18 00:12:22;;;;;;;36.50;20.00;;;;;;;20.03;64.70;98625.33;105783;1276;96430;-69
2022/08/18 00:14:52;;;;;;;31.80;21.20;;;;;;;20.03;64.91;98629.45;105841;1277;97913;-70
2022/08/18 00:17:21;;;;;;;30.50;20.80;;;;;;;20.04;64.91;98633.63;105977;1277;111184;-70
2022/08/18 00:19:49;;;;;;;28.00;19.60;;;;;;;20.04;64.98;98638.48;105967;1277;97915;-70
2022/08/18 00:22:20;;;;;;;32.40;21.40;;;;;;;20.03;64.94;98635.79;105928;1276;108114;-72
2022/08/18 00:24:52;;;;;;;30.00;21.20;;;;;;;20.00;64.96;98638.03;105871;1277;98004;-71
2022/08/18 00:27:24;;;;;;;30.00;21.00;;;;;;;19.99;64.98;98642.34;105985;1277;97892;-71
2022/08/18 00:30:02;;;;;;;32.20;23.30;;;;;;;19.99;65.06;98640.79;105973;1277;111457;-70
2022/08/18 00:32:38;;;;;;;33.20;21.90;;;;;;;19.98;65.24;98640.19;105950;1277;95277;-71
2022/08/18 00:35:17;;;;;;;30.10;22.40;;;;;;;19.97;65.23;98638.15;105974;1277;107819;-71
2022/08/18 00:37:48;;;;;;;31.00;21.20;;;;;;;19.95;65.38;98644.98;106022;1277;97985;-73
2022/08/18 00:40:27;;;;;;;31.30;19.60;;;;;;;19.93;65.39;98652.01;106047;1277;97957;-73
2022/08/18 00:43:00;;;;;;;35.20;22.70;;;;;;;19.92;65.51;98652.73;105854;1277;111571;-71
2022/08/18 00:45:34;;;;;;;33.10;22.40;;;;;;;19.89;65.41;98651.80;105927;1277;97909;-72
2022/08/18 00:48:05;;;;;;;32.90;22.80;;;;;;;19.86;65.47;98647.08;106125;1276;107740;-71
2022/08/18 00:50:50;;;;;;;32.40;22.10;;;;;;;19.84;65.69;98647.71;106048;1276;97957;-71
2022/08/18 00:53:32;;;;;;;29.70;20.70;;;;;;;19.82;65.66;98649.73;106023;1276;97867;-69
2022/08/18 00:56:09;;;;;;;33.60;21.20;;;;;;;19.78;65.65;98651.39;106032;1276;111463;-70
2022/08/18 00:58:58;;;;;;;32.50;21.90;;;;;;;19.75;65.76;98651.63;106100;1277;97905;-70
2022/08/18 01:01:31;;;;;;;30.80;20.30;;;;;;;19.72;65.81;98655.81;106048;1277;107814;-72
2022/08/18 01:04:23;;;;;;;28.10;20.80;;;;;;;19.68;65.81;98658.20;105902;1277;97937;-71
2022/08/18 01:07:09;;;;;;;33.20;20.80;;;;;;;19.65;65.79;98664.42;106030;1274;95254;-73
2022/08/18 01:09:37;;;;;;;29.70;19.20;;;;;;;19.62;65.92;98661.90;106061;1274;111260;-71
2022/08/18 01:12:08;;;;;;;28.40;19.70;;;;;;;19.58;65.91;98664.14;106037;1276;97987;-71
2022/08/18 01:14:57;;;;;;;30.90;21.00;;;;;;;19.54;65.95;98661.23;106016;1277;107581;-69
2022/08/18 01:23:17;;;;;;;30.20;20.40;;;;;;;19.43;66.34;98677.22;105863;1278;111071;-68
2022/08/18 01:25:59;;;;;;;30.90;21.00;;;;;;;19.41;66.27;98679.78;106048;1276;97944;-70
2022/08/18 01:28:33;;;;;;;28.90;20.80;;;;;;;19.39;66.37;98685.77;105967;1276;107727;-69
2022/08/18 01:31:02;;;;;;;29.30;21.50;;;;;;;19.37;66.36;98683.48;105980;1276;97887;-69
2022/08/18 01:33:39;;;;;;;30.00;20.70;;;;;;;19.35;66.37;98681.75;105959;1276;97947;-70
2022/08/18 01:36:16;;;;;;;29.20;20.30;;;;;;;19.33;66.50;98675.50;105856;1277;112358;-71
2022/08/18 01:38:49;;;;;;;29.50;20.00;;;;;;;19.31;66.57;98673.19;105873;1276;95928;-70
2022/08/18 01:41:20;;;;;;;33.90;21.40;;;;;;;19.30;66.68;98668.67;105969;1275;107782;-70
2022/08/18 01:43:59;;;;;;;28.60;20.80;;;;;;;19.29;66.72;98665.00;106029;1275;97819;-72
2022/08/18 01:46:30;;;;;;;33.10;20.90;;;;;;;19.27;66.67;98662.38;106051;1275;97816;-69
2022/08/18 01:49:00;;;;;;;31.40;20.30;;;;;;;19.25;66.81;98662.23;105892;1276;111350;-72
2022/08/18 01:51:31;;;;;;;31.20;20.60;;;;;;;19.24;66.69;98668.70;105959;1277;97886;-72
2022/08/18 01:54:12;;;;;;;28.40;19.10;;;;;;;19.22;66.83;98676.48;105988;1276;107918;-71
2022/08/18 01:56:42;;;;;;;27.80;19.30;;;;;;;19.19;66.82;98683.45;106001;1276;97933;-71
2022/08/18 01:59:13;;;;;;;29.10;19.70;;;;;;;19.15;66.81;98689.76;106024;1276;95451;-71
2022/08/18 02:01:45;;;;;;;30.40;20.50;;;;;;;19.14;66.93;98684.23;106065;1276;111450;-70
2022/08/18 02:04:26;;;;;;;29.70;20.20;;;;;;;19.10;66.97;98675.45;106089;1276;98478;-66
2022/08/18 02:07:10;;;;;;;30.50;20.60;;;;;;;19.07;67.00;98674.52;106008;1276;107437;-70
2022/08/18 02:09:40;;;;;;;28.50;19.60;;;;;;;19.06;67.08;98669.47;106055;1276;97950;-72
2022/08/18 02:12:09;;;;;;;31.30;20.50;;;;;;;19.04;67.23;98667.30;106035;1277;97943;-70
2022/08/18 02:14:38;;;;;;;30.30;20.50;;;;;;;19.04;67.25;98668.04;106053;1277;112118;-68
2022/08/18 02:17:09;;;;;;;28.90;19.80;;;;;;;19.03;67.28;98667.23;106026;1276;96859;-69
2022/08/18 02:19:44;;;;;;;25.80;19.30;;;;;;;19.02;67.31;98670.95;105977;1276;108650;-70
2022/08/18 02:22:17;;;;;;;29.20;19.80;;;;;;;19.00;67.35;98679.07;105910;1276;95538;-69
2022/08/18 02:24:46;;;;;;;28.40;19.40;;;;;;;18.99;67.52;98682.73;106021;1276;98674;-71
2022/08/18 02:27:16;;;;;;;27.10;19.30;;;;;;;18.98;67.53;98679.31;106003;1276;111591;-69
2022/08/18 02:29:44;;;;;;;29.60;22.20;;;;;;;18.98;67.57;98680.59;106017;1276;97863;-70
2022/08/18 02:32:12;;;;;;;28.50;18.80;;;;;;;18.97;67.53;98678.14;106120;1276;107181;-72
2022/08/18 02:34:41;;;;;;;29.30;20.50;;;;;;;18.96;67.64;98670.75;106015;1276;95323;-71
2022/08/18 02:37:10;;;;;;;29.30;19.00;;;;;;;18.94;67.66;98664.90;105990;1276;97880;-70
2022/08/18 02:39:43;;;;;;;28.60;18.70;;;;;;;18.92;67.71;98664.40;105971;1276;111356;-69
2022/08/18 02:42:13;;;;;;;27.30;19.10;;;;;;;18.89;67.73;98667.71;106120;1276;98001;-71
2022/08/18 02:44:41;;;;;;;29.30;19.30;;;;;;;18.87;67.73;98665.23;106104;1276;108720;-68
2022/08/18 02:47:09;;;;;;;29.40;21.20;;;;;;;18.86;67.79;98661.83;106071;1276;97978;-70
2022/08/18 02:49:38;;;;;;;34.80;21.90;;;;;;;18.83;67.85;98660.02;106148;1276;95221;-73
2022/08/18 02:52:06;;;;;;;60.00;21.10;;;;;;;18.76;67.74;98667.25;106008;1276;111279;-71
2022/08/18 02:54:34;;;;;;;29.30;21.80;;;;;;;18.67;67.77;98676.69;106019;1276;97944;-71
2022/08/18 02:57:09;;;;;;;29.40;20.80;;;;;;;18.61;68.04;98680.73;105935;1276;107589;-70
2022/08/18 02:59:39;;;;;;;28.80;20.10;;;;;;;18.60;68.19;98678.35;106035;1276;98002;-72
2022/08/18 03:02:09;;;;;;;29.10;20.00;;;;;;;18.60;68.29;98673.30;106072;1276;95386;-67
2022/08/18 03:04:38;;;;;;;26.30;18.80;;;;;;;18.61;68.33;98676.09;106099;1276;111425;-68
2022/08/18 03:07:08;;;;;;;26.70;18.00;;;;;;;18.60;68.26;98681.55;105922;1276;98610;-69
2022/08/18 03:09:37;;;;;;;26.70;18.90;;;;;;;18.58;68.31;98678.88;105998;1274;109119;-68
2022/08/18 03:12:06;;;;;;;26.10;18.40;;;;;;;18.58;68.34;98681.59;105965;1276;98554;-69
2022/08/18 03:14:36;;;;;;;26.60;18.10;;;;;;;18.57;68.46;98680.25;105966;1277;97036;-69
2022/08/18 03:17:08;;;;;;;27.90;17.30;;;;;;;18.57;68.36;98684.79;106044;1276;111436;-71
2022/08/18 03:19:36;;;;;;;28.30;18.20;;;;;;;18.55;68.51;98686.05;106080;1276;97934;-72
2022/08/18 03:22:07;;;;;;;25.60;18.60;;;;;;;18.55;68.50;98689.31;106117;1276;107934;-73
2022/08/18 03:24:57;;;;;;;28.40;18.60;;;;;;;18.53;68.57;98699.05;106003;1276;97975;-73
2022/08/18 03:27:26;;;;;;;24.80;17.70;;;;;;;18.52;68.55;98703.49;106056;1276;97932;-72
2022/08/18 03:29:54;;;;;;;25.60;16.50;;;;;;;18.49;68.66;98700.20;106004;1276;110347;-70
2022/08/18 03:32:25;;;;;;;25.80;17.40;;;;;;;18.46;68.68;98699.27;105931;1276;97907;-71
2022/08/18 03:34:53;;;;;;;24.50;16.20;;;;;;;18.44;68.73;98696.27;106032;1275;107917;-70
2022/08/18 03:37:21;;;;;;;25.50;16.10;;;;;;;18.43;68.79;98696.34;105986;1276;97775;-71
2022/08/18 03:39:51;;;;;;;24.60;15.90;;;;;;;18.43;68.89;98695.54;106018;1276;97087;-69
2022/08/18 03:42:19;;;;;;;24.10;16.40;;;;;;;18.41;68.72;98692.88;105927;1276;112096;-70
2022/08/18 03:44:48;;;;;;;23.70;15.80;;;;;;;18.40;68.88;98693.66;105944;1276;95353;-70
2022/08/18 03:47:16;;;;;;;25.00;16.60;;;;;;;18.39;68.93;98696.65;106050;1276;107772;-70
2022/08/18 03:49:45;;;;;;;24.80;16.60;;;;;;;18.39;68.93;98697.02;105879;1276;98062;-69
2022/08/18 03:52:13;;;;;;;24.80;15.30;;;;;;;18.39;68.99;98704.18;104637;1276;1626692;-71
2022/08/18 03:54:42;;;;;;;23.00;14.90;;;;;;;18.38;68.86;98708.10;105849;1277;111818;-72
2022/08/18 03:57:12;;;;;;;22.20;13.90;;;;;;;18.36;68.95;98715.50;105892;1276;97900;-71
2022/08/18 03:59:42;;;;;;;22.10;13.40;;;;;;;18.32;68.88;98724.38;106046;1277;105931;-71
2022/08/18 04:02:11;;;;;;;19.50;12.50;;;;;;;18.27;68.91;98726.92;105982;1276;97837;-71
2022/08/18 04:04:39;;;;;;;18.80;12.00;;;;;;;18.19;68.59;98730.42;105895;1276;97995;-70
2022/08/18 04:07:15;;;;;;;22.00;13.90;;;;;;;18.10;68.76;98735.75;105938;1276;111488;-71
2022/08/18 04:09:44;;;;;;;20.20;13.10;;;;;;;18.00;68.87;98744.02;105946;1276;97884;-70
2022/08/18 04:12:14;;;;;;;20.40;13.20;;;;;;;17.94;68.99;98744.65;106025;1276;107766;-71
2022/08/18 04:14:47;;;;;;;19.60;12.60;;;;;;;17.91;69.29;98741.77;105821;1276;95922;-71
2022/08/18 04:17:23;;;;;;;18.50;11.90;;;;;;;17.90;69.45;98744.02;106019;1276;95309;-72
2022/08/18 04:19:54;;;;;;;20.20;12.30;;;;;;;17.90;69.62;98739.69;105925;1276;112401;-71
2022/08/18 04:22:25;;;;;;;23.10;13.10;;;;;;;17.87;69.51;98741.56;106001;1276;97883;-71
2022/08/18 04:24:53;;;;;;;22.60;13.60;;;;;;;17.83;69.22;98752.73;106166;1276;108600;-71
2022/08/18 04:27:21;;;;;;;19.30;12.90;;;;;;;17.80;69.41;98760.15;106140;1276;97850;-72
2022/08/18 04:29:50;;;;;;;21.60;13.20;;;;;;;17.78;69.45;98760.88;106068;1276;98072;-71
2022/08/18 04:32:18;;;;;;;24.40;16.50;;;;;;;17.77;69.72;98758.46;106054;1276;111418;-71
2022/08/18 04:34:46;;;;;;;19.80;13.00;;;;;;;17.76;69.80;98753.17;106053;1276;97849;-70
2022/08/18 04:37:16;;;;;;;20.70;13.10;;;;;;;17.77;69.78;98756.48;106114;1276;107912;-71
2022/08/18 04:39:44;;;;;;;16.30;10.40;;;;;;;17.77;69.78;98756.69;106140;1276;97963;-71
2022/08/18 04:42:14;;;;;;;19.20;11.60;;;;;;;17.78;70.03;98756.61;106106;1276;98490;-71
2022/08/18 04:44:42;;;;;;;20.50;12.10;;;;;;;17.78;70.12;98751.87;106022;1276;111411;-71
2022/08/18 04:47:09;;;;;;;18.70;12.60;;;;;;;17.79;69.91;98747.14;106012;1276;97961;-70
2022/08/18 04:49:38;;;;;;;20.60;13.00;;;;;;;17.78;70.14;98743.67;106075;1276;107794;-71
2022/08/18 04:55:09;;;;;;;19.20;12.40;;;;;;;17.84;70.51;98743.71;106156;1276;95295;-71
2022/08/18 04:57:37;;;;;;;20.50;14.50;;;;;;;17.88;70.49;98740.39;106037;1276;111341;-71
2022/08/18 05:00:11;;;;;;;22.30;15.90;;;;;;;17.93;70.50;98735.80;105957;1276;97879;-72
2022/08/18 05:02:40;;;;;;;22.20;15.40;;;;;;;17.95;70.47;98730.33;105980;1276;108154;-72
2022/08/18 05:05:08;;;;;;;22.30;15.80;;;;;;;17.97;70.34;98728.63;106023;1276;97907;-73
2022/08/18 05:07:43;;;;;;;25.70;16.90;;;;;;;18.02;70.56;98727.67;106040;1276;97838;-72
2022/08/18 05:10:16;;;;;;;26.30;17.50;;;;;;;18.07;70.81;98733.90;106106;1276;111113;-72
2022/08/18 05:12:47;;;;;;;24.20;17.00;;;;;;;18.13;70.81;98736.33;105994;1276;98330;-73
2022/08/18 05:15:17;;;;;;;25.40;17.80;;;;;;;18.18;70.92;98736.81;105993;1276;107665;-71
2022/08/18 05:17:45;;;;;;;24.90;17.90;;;;;;;18.23;70.71;98736.29;105990;1276;98079;-72
2022/08/18 05:20:18;;;;;;;24.40;18.60;;;;;;;18.28;70.90;98731.94;106123;1276;97851;-72
2022/08/18 05:22:48;;;;;;;25.30;18.40;;;;;;;18.33;70.95;98727.33;106089;1276;111080;-72
2022/08/18 05:25:16;;;;;;;25.50;18.10;;;;;;;18.38;70.98;98721.35;105997;1276;96983;-71
2022/08/18 05:27:44;;;;;;;29.00;19.10;;;;;;;18.44;71.14;98724.48;105983;1276;105792;-71
2022/08/18 05:30:14;;;;;;;26.80;19.90;;;;;;;18.52;71.28;98720.57;106026;1276;97864;-73
2022/08/18 05:32:46;;;;;;;27.40;18.80;;;;;;;18.59;71.31;98726.40;105994;1276;97873;-70
2022/08/18 05:35:25;;;;;;;26.90;18.60;;;;;;;18.66;71.42;98729.39;105957;1277;111466;-73
2022/08/18 05:38:26;;;;;;;27.60;18.80;;;;;;;18.74;71.35;98731.05;105999;1276;95374;-72
2022/08/18 05:41:21;;;;;;;24.10;16.90;;;;;;;18.83;71.43;98730.78;105993;1275;107652;-72
2022/08/18 05:43:51;;;;;;;25.00;17.40;;;;;;;18.92;71.37;98732.81;106083;1276;97861;-71
2022/08/18 05:46:46;;;;;;;24.20;17.30;;;;;;;19.01;71.40;98735.27;106365;1274;97959;-73
2022/08/18 05:49:16;;;;;;;23.50;17.10;;;;;;;19.11;71.65;98733.04;106027;1276;111359;-74
2022/08/18 05:52:07;;;;;;;26.00;17.50;;;;;;;19.20;71.69;98738.52;105941;1277;95278;-72
2022/08/18 05:58:05;;;;;;;24.00;15.60;;;;;;;19.40;71.89;98738.96;105920;1277;97874;-72
2022/08/18 06:00:36;;;;;;;25.00;15.80;;;;;;;19.48;71.81;98734.90;106042;1277;95358;-72
2022/08/18 06:03:42;;;;;;;26.30;16.80;;;;;;;19.56;72.01;98737.86;105967;1277;111432;-72
2022/08/18 06:06:21;;;;;;;25.80;16.10;;;;;;;19.65;71.81;98739.15;105833;1278;95592;-72
2022/08/18 06:09:12;;;;;;;26.90;17.90;;;;;;;19.73;71.85;98737.41;105932;1277;107416;-72
2022/08/18 06:11:40;;;;;;;26.50;17.70;;;;;;;19.83;71.98;98741.32;105885;1276;98011;-73
2022/08/18 06:14:08;;;;;;;30.20;18.60;;;;;;;19.92;71.88;98747.13;105981;1276;97904;-73
2022/08/18 06:16:42;;;;;;;26.70;16.70;;;;;;;20.01;71.95;98750.10;106017;1276;111382;-73
2022/08/18 06:19:43;;;;;;;27.70;17.80;;;;;;;20.10;72.04;98754.86;105996;1276;95197;-74
2022/08/18 06:22:26;;;;;;;23.20;15.20;;;;;;;20.18;72.02;98753.64;105937;1276;107718;-75
2022/08/18 06:25:25;;;;;;;23.20;16.40;;;;;;;20.27;72.11;98757.02;105848;1276;97817;-72
2022/08/18 06:28:12;;;;;;;25.60;16.40;;;;;;;20.35;72.03;98763.02;105928;1276;95254;-76
2022/08/18 06:31:01;;;;;;;23.80;15.90;;;;;;;20.43;72.05;98763.52;106000;1276;111169;-73
2022/08/18 06:33:45;;;;;;;26.90;16.50;;;;;;;20.52;72.03;98764.98;106017;1277;97859;-72
2022/08/18 06:36:25;;;;;;;25.40;15.40;;;;;;;20.61;72.26;98766.11;105880;1276;107671;-72
2022/08/18 06:39:05;;;;;;;23.50;15.50;;;;;;;20.71;72.14;98768.69;105869;1277;97995;-72
2022/08/18 06:41:44;;;;;;;25.60;16.10;;;;;;;20.80;72.02;98769.77;105887;1276;97855;-72
2022/08/18 06:44:18;;;;;;;26.60;17.00;;;;;;;20.89;72.26;98772.63;105978;1276;109878;-72
2022/08/18 06:47:03;;;;;;;21.80;14.40;;;;;;;20.98;72.25;98776.16;105889;1276;95210;-73
2022/08/18 06:49:48;;;;;;;24.00;16.80;;;;;;;21.06;72.37;98779.15;105885;1276;107016;-72
2022/08/18 06:52:31;;;;;;;24.50;14.70;;;;;;;21.16;72.34;98782.20;105987;1276;97977;-72
2022/08/18 06:55:15;;;;;;;24.80;14.50;;;;;;;21.25;72.16;98781.19;105981;1276;97874;-72
2022/08/18 06:57:58;;;;;;;23.80;13.70;;;;;;;21.33;72.14;98778.17;105887;1276;111406;-72
2022/08/18 07:00:30;;;;;;;23.80;15.10;;;;;;;21.43;71.95;98775.36;105961;1276;97968;-73
2022/08/18 07:03:06;;;;;;;;;;;;;;;21.52;72.06;98770.66;105794;1278;108789;-71
2022/08/18 07:05:39;;;;;;;23.90;14.50;;;;;;;21.58;72.13;98774.77;105934;1276;95925;-74
2022/08/18 07:08:16;;;;;;;25.10;14.00;;;;;;;21.68;72.03;98772.49;105914;1276;99010;-76
2022/08/18 07:10:50;;;;;;;22.00;13.60;;;;;;;21.78;72.02;98775.64;105776;1276;111410;-75
2022/08/18 07:13:25;;;;;;;21.20;13.00;;;;;;;21.88;71.89;98778.92;105936;1276;96585;-75
2022/08/18 07:16:14;;;;;;;20.60;12.60;;;;;;;22.14;71.88;98772.04;105800;1276;107889;-74
2022/08/18 07:18:48;;;;;;;21.10;11.60;;;;;;;23.54;70.08;98767.00;105906;1276;95475;-75
2022/08/18 07:21:32;;;;;;;20.40;11.00;;;;;;;25.03;69.40;98773.81;105949;1276;97992;-76
2022/08/18 07:24:06;;;;;;;21.20;10.90;;;;;;;26.63;68.98;98774.50;105939;1276;111510;-73
2022/08/18 07:27:08;;;;;;;19.00;9.80;;;;;;;28.22;68.56;98771.80;105875;1276;98000;-75
2022/08/18 07:29:59;;;;;;;17.90;8.20;;;;;;;29.41;68.54;98775.23;105788;1276;106743;-76
2022/08/18 07:32:36;;;;;;;16.20;8.60;;;;;;;30.70;68.35;98781.69;105829;1276;97066;-73
2022/08/18 07:35:08;;;;;;;17.80;8.60;;;;;;;31.47;67.24;98780.05;105812;1276;97886;-72
2022/08/18 07:37:47;;;;;;;18.80;9.20;;;;;;;32.30;67.19;98775.55;105855;1276;111393;-72
2022/08/18 07:40:27;;;;;;;17.00;8.00;;;;;;;33.24;66.48;98771.85;105925;1276;95693;-72
2022/08/18 07:43:27;;;;;;;16.50;7.90;;;;;;;34.31;66.31;98772.71;105916;1276;107902;-74
2022/08/18 07:46:17;;;;;;;16.00;8.60;;;;;;;35.53;65.63;98770.80;105843;1277;97885;-74
2022/08/18 07:48:45;;;;;;;15.60;8.00;;;;;;;36.56;65.21;98770.28;105893;1276;95286;-74
2022/08/18 07:51:42;;;;;;;13.70;6.80;;;;;;;37.66;64.88;98771.14;105955;1276;110556;-76
2022/08/18 07:54:29;;;;;;;13.20;7.20;;;;;;;38.15;63.53;98774.66;105889;1276;98394;-74
2022/08/18 07:57:25;;;;;;;16.80;6.70;;;;;;;38.45;63.18;98777.14;105916;1276;107095;-75
2022/08/18 08:00:08;;;;;;;13.80;7.10;;;;;;;38.31;62.08;98774.73;105914;1276;97918;-73
2022/08/18 08:02:47;;;;;;;14.00;6.90;;;;;;;37.91;61.10;98778.56;105938;1276;97873;-74
2022/08/18 08:05:53;;;;;;;12.20;7.10;;;;;;;37.92;60.48;98774.73;106001;1276;111491;-75
2022/08/18 08:08:36;;;;;;;16.20;6.60;;;;;;;38.70;60.31;98776.19;105926;1278;97997;-74
2022/08/18 08:11:19;;;;;;;13.00;6.90;;;;;;;39.39;59.77;98778.85;105991;1276;106784;-73
2022/08/18 08:14:12;;;;;;;12.40;6.30;;;;;;;39.90;58.89;98784.48;105946;1276;97993;-72
2022/08/18 08:17:01;;;;;;;14.70;7.10;;;;;;;40.28;58.28;98782.70;105888;1276;98511;-74
2022/08/18 08:20:11;;;;;;;12.60;6.50;;;;;;;40.68;57.59;98779.70;105882;1276;111435;-73
2022/08/18 08:23:09;;;;;;;12.90;6.70;;;;;;;39.70;56.88;98780.85;105932;1276;99643;-73
2022/08/18 08:25:52;;;;;;;11.40;7.00;;;;;;;39.10;56.67;98782.09;105984;1276;107498;-74
2022/08/18 08:28:47;;;;;;;12.10;6.80;;;;;;;39.49;55.56;98782.86;105828;1276;97769;-75
2022/08/18 08:31:49;;;;;;;14.90;6.60;;;;;;;40.19;54.74;98777.57;105967;1276;97880;-75
2022/08/18 08:34:51;;;;;;;13.00;7.10;;;;;;;40.62;53.95;98774.21;105869;1279;111899;-79
2022/08/18 08:37:33;;;;;;;10.50;6.10;;;;;;;41.03;53.41;98776.03;105915;1276;97567;-77
2022/08/18 08:40:23;;;;;;;;;;;;;;;40.76;51.99;98777.42;105801;1276;107796;-80
2022/08/18 08:43:03;;;;;;;10.80;5.90;;;;;;;40.20;51.77;98778.98;105904;1276;97910;-79
2022/08/18 08:45:36;;;;;;;13.00;5.80;;;;;;;39.75;51.66;98778.29;105905;1276;95844;-80
2022/08/18 08:48:16;;;;;;;10.40;6.10;;;;;;;39.57;50.76;98780.52;105867;1276;111822;-84
2022/08/18 08:50:53;;;;;;;10.80;6.50;;;;;;;38.36;49.02;98783.10;105872;1279;97898;-82
2022/08/18 08:53:31;;;;;;;10.90;6.30;;;;;;;38.01;48.85;98776.88;105992;1277;107754;-82
2022/08/18 08:56:10;;;;;;;8.90;5.90;;;;;;;37.72;48.04;98773.77;106002;1276;97933;-83
2022/08/18 08:58:57;;;;;;;11.60;6.80;;;;;;;37.79;47.93;98772.52;106001;1276;97970;-83
2022/08/18 09:02:13;;;;;;;9.10;5.90;;;;;;;38.05;48.16;98769.44;106372;1276;111460;-82
2022/08/18 09:05:24;;;;;;;12.30;6.10;;;;;;;38.36;47.79;98769.14;105456;1277;95700;-81
2022/08/18 09:07:59;;;;;;;11.40;6.40;;;;;;;38.46;47.19;98767.58;106075;1276;108205;-82
2022/08/18 09:11:05;;;;;;;10.20;6.00;;;;;;;38.43;46.75;98764.01;106070;1276;98018;-86
2022/08/18 09:13:58;;;;;;;13.20;6.30;;;;;;;38.45;46.08;98766.14;105888;1276;97875;-85
2022/08/18 09:16:45;;;;;;;11.50;6.20;;;;;;;38.77;45.96;98762.45;105997;1276;112477;-86
2022/08/18 09:19:51;;;;;;;14.20;7.20;;;;;;;38.93;45.57;98757.91;105990;1276;97875;-78
2022/08/18 09:22:52;;;;;;;11.50;6.30;;;;;;;38.91;44.83;98757.88;105878;1276;107623;-79
2022/08/18 09:25:36;;;;;;;12.30;6.90;;;;;;;38.59;43.87;98757.72;105902;1276;97808;-74
2022/08/18 09:28:13;;;;;;;10.60;6.20;;;;;;;37.94;43.64;98760.42;105936;1276;97839;-75
2022/08/18 09:31:01;;;;;;;13.40;6.60;;;;;;;37.84;43.88;98756.52;105989;1276;111454;-73
2022/08/18 09:33:46;;;;;;;13.30;6.80;;;;;;;38.42;43.89;98752.94;106022;1276;98384;-75
2022/08/18 09:36:33;;;;;;;15.50;6.90;;;;;;;38.83;43.25;98743.23;105980;1276;108560;-75
2022/08/18 09:42:15;;;;;;;13.30;6.50;;;;;;;38.40;42.27;98743.55;105964;1276;98576;-74
2022/08/18 09:44:46;;;;;;;13.40;5.90;;;;;;;38.33;42.08;98747.31;105940;1276;111468;-74
2022/08/18 09:47:23;;;;;;;13.20;6.50;;;;;;;38.04;41.46;98741.08;105942;1276;96990;-74
2022/08/18 09:50:26;;;;;;;9.20;5.80;;;;;;;37.85;41.43;98741.62;106043;1276;107803;-73
2022/08/18 09:53:14;;;;;;;11.80;6.50;;;;;;;37.91;41.17;98740.83;105941;1276;96623;-75
2022/08/18 09:55:54;;;;;;;14.30;7.00;;;;;;;38.02;40.77;98741.09;105980;1276;95277;-75
2022/08/18 09:58:28;;;;;;;11.80;6.90;;;;;;;37.69;40.65;98742.35;105943;1276;111452;-74
2022/08/18 10:01:21;;;;;;;10.60;6.20;;;;;;;37.66;41.24;98737.86;106026;1276;98098;-75
2022/08/18 10:04:25;;;;;;;16.50;7.10;;;;;;;37.15;40.10;98748.31;105886;1276;105812;-75
2022/08/18 10:07:19;;;;;;;14.10;7.00;;;;;;;35.85;39.34;98748.39;105957;1276;97865;-74
2022/08/18 10:09:55;;;;;;;13.40;6.90;;;;;;;34.81;39.29;98753.58;105973;1276;98994;-74
2022/08/18 10:12:36;;;;;;;13.60;7.70;;;;;;;34.36;39.81;98753.39;106041;1276;111421;-73
2022/08/18 10:15:24;;;;;;;11.50;6.50;;;;;;;34.25;40.03;98752.45;105969;1276;96393;-73
2022/08/18 10:18:08;;;;;;;14.40;7.50;;;;;;;34.17;40.10;98749.63;105939;1276;107677;-74
2022/08/18 10:21:07;;;;;;;13.00;7.20;;;;;;;34.11;39.95;98744.83;105986;1276;98493;-74
2022/08/18 10:23:51;;;;;;;13.90;7.30;;;;;;;33.92;39.61;98749.60;106088;1276;97860;-74
2022/08/18 10:26:42;;;;;;;13.60;7.60;;;;;;;33.31;38.90;98752.71;105995;1276;111419;-73
2022/08/18 10:29:22;;;;;;;14.90;7.40;;;;;;;32.87;39.56;98753.33;106006;1276;97904;-72
2022/08/18 10:31:53;;;;;;;15.40;7.50;;;;;;;32.77;39.54;98757.92;106004;1276;107723;-74
2022/08/18 10:34:40;;;;;;;18.20;8.30;;;;;;;32.56;39.51;98756.79;106047;1276;95596;-74
2022/08/18 10:37:52;;;;;;;14.40;7.30;;;;;;;32.24;39.54;98751.40;105993;1276;95393;-73
2022/08/18 10:40:23;;;;;;;15.50;8.20;;;;;;;32.10;39.75;98754.86;105951;1276;111394;-74
2022/08/18 10:43:10;;;;;;;16.50;8.30;;;;;;;31.88;39.42;98754.33;106168;1276;98041;-73
2022/08/18 10:45:58;;;;;;;14.90;8.10;;;;;;;31.55;39.61;98755.25;106023;1276;107627;-73
2022/08/18 10:49:14;;;;;;;12.50;7.20;;;;;;;31.27;39.55;98757.63;106148;1276;97957;-74
2022/08/18 10:51:57;;;;;;;16.80;7.70;;;;;;;31.11;39.91;98760.48;106144;1276;97864;-73
2022/08/18 10:55:01;;;;;;;15.10;7.20;;;;;;;30.82;39.71;98763.37;106097;1277;111415;-74
2022/08/18 10:57:34;;;;;;;16.60;7.90;;;;;;;30.61;40.03;98765.42;106060;1274;95628;-75
2022/08/18 11:00:18;;;;;;;13.50;7.10;;;;;;;30.56;40.22;98763.25;106007;1277;107432;-74
2022/08/18 11:03:08;;;;;;;13.50;7.30;;;;;;;30.57;40.39;98765.14;106025;1277;97843;-73
2022/08/18 11:06:05;;;;;;;15.30;7.60;;;;;;;30.64;40.48;98766.56;106052;1277;97828;-72
2022/08/18 11:08:48;;;;;;;13.10;6.90;;;;;;;30.66;40.67;98771.77;106149;1276;110956;-71
2022/08/18 11:11:32;;;;;;;13.10;7.20;;;;;;;30.70;40.73;98772.55;106097;1277;98489;-72
2022/08/18 11:14:22;;;;;;;14.90;7.40;;;;;;;30.74;40.73;98774.14;106090;1277;107452;-71
2022/08/18 11:17:15;;;;;;;17.70;7.90;;;;;;;30.63;40.53;98775.00;106050;1277;97973;-73
2022/08/18 11:19:45;;;;;;;15.50;8.10;;;;;;;30.39;40.80;98775.70;105993;1276;97956;-73
2022/08/18 11:22:34;;;;;;;17.50;7.10;;;;;;;30.35;40.92;98772.19;105972;1276;111560;-75
2022/08/18 11:25:22;;;;;;;14.80;7.60;;;;;;;30.31;41.13;98770.36;105938;1276;97978;-76
2022/08/18 11:27:53;;;;;;;14.40;7.50;;;;;;;30.24;41.07;98770.23;105951;1276;107798;-74
2022/08/18 11:30:35;;;;;;;14.60;7.70;;;;;;;30.20;41.12;98772.96;106048;1276;95188;-73
2022/08/18 11:33:05;;;;;;;13.40;7.10;;;;;;;30.18;41.27;98765.41;106143;1276;97887;-74
2022/08/18 11:36:02;;;;;;;13.70;6.80;;;;;;;30.15;41.10;98760.92;106085;1276;111484;-73
2022/08/18 11:38:30;;;;;;;13.80;7.10;;;;;;;30.05;41.26;98757.20;105942;1276;95626;-72
2022/08/18 11:41:14;;;;;;;15.60;7.40;;;;;;;29.92;41.13;98754.52;106113;1276;107735;-74
2022/08/18 11:43:47;;;;;;;17.60;7.80;;;;;;;29.74;41.23;98754.08;106125;1276;97845;-74
2022/08/18 11:46:24;;;;;;;16.20;7.60;;;;;;;29.61;41.27;98757.34;106151;1276;97897;-74
2022/08/18 11:49:13;;;;;;;14.90;7.20;;;;;;;29.50;41.41;98754.29;106042;1276;111405;-73
2022/08/18 11:52:05;;;;;;;15.20;7.50;;;;;;;29.46;41.51;98745.55;106069;1276;95724;-75
2022/08/18 11:54:43;;;;;;;14.30;6.80;;;;;;;29.47;41.63;98734.67;105971;1276;109143;-74
2022/08/18 11:57:53;;;;;;;15.10;7.40;;;;;;;29.51;41.75;98734.31;105918;1276;97963;-74
2022/08/18 12:00:46;;;;;;;17.20;7.10;;;;;;;29.49;41.80;98728.36;106019;1276;97856;-73
2022/08/18 12:03:16;;;;;;;12.50;6.80;;;;;;;29.51;41.76;98731.36;106020;1276;111407;-72
2022/08/18 12:05:52;;;;;;;14.10;6.90;;;;;;;29.53;41.89;98724.48;106076;1276;97993;-73
2022/08/18 12:08:34;;;;;;;14.70;7.20;;;;;;;29.57;41.97;98719.61;106032;1276;106629;-73
2022/08/18 12:11:32;;;;;;;18.30;7.70;;;;;;;29.59;42.04;98718.44;105989;1276;97902;-73
2022/08/18 12:14:06;;;;;;;12.40;6.80;;;;;;;29.56;41.93;98717.52;106055;1276;98031;-73
2022/08/18 12:16:55;;;;;;;16.30;7.30;;;;;;;29.55;42.14;98712.50;106025;1276;110444;-73
2022/08/18 12:19:29;;;;;;;18.60;7.70;;;;;;;29.56;42.01;98715.60;106064;1276;98421;-73